Aeroporto :
LOGIN :

Iscrizione | Disclaimer

   EN    FR    IT 

 










Sommario :    VFR   VFR Marginale   IFR   IFR Intensivo   IFR Molto Intensivo
Visibilità : 
Base nubi : 
>= 8 km
>= 3000ft
5 / 8 km
1000 / 3000 ft
1500m / 5 km
500 / 1000 ft
800 / 1500m
200 / 500 ft
< 800m
< 200 ft
Simboli :   Temporali  Nebbia  Neve Forte  Precipitazioni Forti  Vento > 20 kt
SIGMETs :   Varie  Temporali  Ghiacco  Turbolenza  Onda orograficha  Ceneri Vulcaniche






- Altitudine del aeroporto : 336 ft
- Codice IATA : GCI


EGJB - Guernsey

ULTIMO METAR :
  • 100850Z 19018KT 9999 -RA FEW010 BKN045 10/08 Q1020

METARs OBSOLETI :
  • 100820Z 18016KT 9999 -RA FEW010 BKN017 09/07 Q1020
  • 100750Z 18016KT 9999 FEW010 BKN023 09/07 Q1021
  • 100720Z 20018KT 9999 FEW015 BKN023 09/07 Q1021
  • 100650Z 20017KT 9999 FEW015 BKN024 09/06 Q1022
  • 100620Z 20019KT 9999 FEW018 BKN026 10/06 Q1022

TAF TAF EGJB
Valido dal 10 a 09 ore il 10 a 18 ore UTC


100801Z 1009/1018 19017KT 9999 FEW010 BKN027
BECMG 1009/1010 20020G32KT 7000 RA BKN010
TEMPO 1010/1018 3000 DZ BKN004
PROB40
TEMPO 1010/1018 9999 NSW SCT010
ATIS : +44 1481 238 957



MetMap, La meteo Aeronautica in un colpo d'occhio ! - Copyright ORBIFLY Dicembre 2007 - Disclaimer

ORBIFLY MET'MAP TEAM :

Programmazione e sviluppo : Alexandra Zaïnal
Concezione : Baudouin d'Aumeries
Aiuto per la programmazione : Marc-Olivier Méhu
Supporto tecnico e logistico : Manuel Goepfert
Aiuto per la traduzione : Arnaldo La Scala

Contatto : metmap@orbifly.com




FONTI E CREDITI :

   NOAA